sensor_id;sensor_type;location;lat;lon;timestamp;P1;durP1;ratioP1;P2;durP2;ratioP2
2175;SDS011;1094;49.902;10.876;2022-10-22T00:00:33;14.87;;;11.63;;
2175;SDS011;1094;49.902;10.876;2022-10-22T00:02:59;15.47;;;11.27;;
2175;SDS011;1094;49.902;10.876;2022-10-22T00:05:25;17.30;;;11.60;;
2175;SDS011;1094;49.902;10.876;2022-10-22T00:07:51;15.33;;;11.03;;
2175;SDS011;1094;49.902;10.876;2022-10-22T00:10:17;16.97;;;12.10;;
2175;SDS011;1094;49.902;10.876;2022-10-22T00:12:43;15.83;;;13.00;;
2175;SDS011;1094;49.902;10.876;2022-10-22T00:15:09;15.83;;;13.47;;
2175;SDS011;1094;49.902;10.876;2022-10-22T00:17:35;17.50;;;13.13;;
2175;SDS011;1094;49.902;10.876;2022-10-22T00:20:01;17.73;;;13.70;;
2175;SDS011;1094;49.902;10.876;2022-10-22T00:22:27;20.37;;;13.63;;
2175;SDS011;1094;49.902;10.876;2022-10-22T00:24:53;25.97;;;13.00;;
2175;SDS011;1094;49.902;10.876;2022-10-22T00:27:19;15.37;;;12.07;;
2175;SDS011;1094;49.902;10.876;2022-10-22T00:29:45;20.13;;;15.17;;
2175;SDS011;1094;49.902;10.876;2022-10-22T00:32:11;19.80;;;13.33;;
2175;SDS011;1094;49.902;10.876;2022-10-22T00:34:37;20.87;;;12.33;;
2175;SDS011;1094;49.902;10.876;2022-10-22T00:37:03;15.90;;;13.07;;
2175;SDS011;1094;49.902;10.876;2022-10-22T00:39:29;13.70;;;11.63;;
2175;SDS011;1094;49.902;10.876;2022-10-22T00:41:56;14.90;;;11.23;;
2175;SDS011;1094;49.902;10.876;2022-10-22T00:47:07;17.00;;;11.17;;
2175;SDS011;1094;49.902;10.876;2022-10-22T00:49:33;14.30;;;10.90;;
2175;SDS011;1094;49.902;10.876;2022-10-22T00:51:59;15.70;;;9.90;;
2175;SDS011;1094;49.902;10.876;2022-10-22T00:54:25;17.13;;;11.70;;
2175;SDS011;1094;49.902;10.876;2022-10-22T00:56:51;16.27;;;11.73;;
2175;SDS011;1094;49.902;10.876;2022-10-22T00:59:17;14.33;;;9.70;;
2175;SDS011;1094;49.902;10.876;2022-10-22T01:01:43;14.20;;;10.97;;
2175;SDS011;1094;49.902;10.876;2022-10-22T01:04:10;14.90;;;10.47;;
2175;SDS011;1094;49.902;10.876;2022-10-22T01:06:36;18.23;;;11.90;;
2175;SDS011;1094;49.902;10.876;2022-10-22T01:09:11;16.23;;;12.03;;
2175;SDS011;1094;49.902;10.876;2022-10-22T01:14:13;16.03;;;12.60;;
2175;SDS011;1094;49.902;10.876;2022-10-22T01:16:43;18.10;;;10.17;;
2175;SDS011;1094;49.902;10.876;2022-10-22T01:21:44;15.67;;;11.90;;
2175;SDS011;1094;49.902;10.876;2022-10-22T01:26:55;22.87;;;12.77;;
2175;SDS011;1094;49.902;10.876;2022-10-22T01:29:29;15.30;;;12.10;;
2175;SDS011;1094;49.902;10.876;2022-10-22T01:32:06;15.50;;;11.80;;
2175;SDS011;1094;49.902;10.876;2022-10-22T01:34:33;21.37;;;11.80;;
2175;SDS011;1094;49.902;10.876;2022-10-22T01:36:59;16.90;;;11.60;;
2175;SDS011;1094;49.902;10.876;2022-10-22T01:39:27;15.53;;;11.90;;
2175;SDS011;1094;49.902;10.876;2022-10-22T01:41:54;16.30;;;11.60;;
2175;SDS011;1094;49.902;10.876;2022-10-22T01:44:27;14.43;;;11.47;;
2175;SDS011;1094;49.902;10.876;2022-10-22T01:57:32;16.73;;;12.03;;
2175;SDS011;1094;49.902;10.876;2022-10-22T02:00:03;15.77;;;11.83;;
2175;SDS011;1094;49.902;10.876;2022-10-22T02:05:19;13.93;;;11.70;;
2175;SDS011;1094;49.902;10.876;2022-10-22T02:08:00;12.50;;;10.80;;
2175;SDS011;1094;49.902;10.876;2022-10-22T02:10:26;17.80;;;11.77;;
2175;SDS011;1094;49.902;10.876;2022-10-22T02:12:53;16.83;;;10.93;;
2175;SDS011;1094;49.902;10.876;2022-10-22T02:15:21;22.10;;;12.00;;
2175;SDS011;1094;49.902;10.876;2022-10-22T02:17:48;17.47;;;11.10;;
2175;SDS011;1094;49.902;10.876;2022-10-22T02:20:17;13.60;;;10.87;;
2175;SDS011;1094;49.902;10.876;2022-10-22T02:22:44;14.17;;;10.50;;
2175;SDS011;1094;49.902;10.876;2022-10-22T02:25:10;17.17;;;11.53;;
2175;SDS011;1094;49.902;10.876;2022-10-22T02:30:09;15.60;;;11.03;;
2175;SDS011;1094;49.902;10.876;2022-10-22T02:32:48;24.80;;;12.37;;
2175;SDS011;1094;49.902;10.876;2022-10-22T02:35:16;19.40;;;11.03;;
2175;SDS011;1094;49.902;10.876;2022-10-22T02:37:43;20.47;;;10.97;;
2175;SDS011;1094;49.902;10.876;2022-10-22T02:40:10;15.80;;;11.03;;
2175;SDS011;1094;49.902;10.876;2022-10-22T02:42:36;18.17;;;10.97;;
2175;SDS011;1094;49.902;10.876;2022-10-22T02:45:04;13.20;;;9.67;;
2175;SDS011;1094;49.902;10.876;2022-10-22T02:47:30;12.20;;;10.37;;
2175;SDS011;1094;49.902;10.876;2022-10-22T02:49:56;12.50;;;10.20;;
2175;SDS011;1094;49.902;10.876;2022-10-22T02:52:22;16.90;;;10.63;;
2175;SDS011;1094;49.902;10.876;2022-10-22T02:54:47;17.27;;;10.60;;
2175;SDS011;1094;49.902;10.876;2022-10-22T02:57:13;11.03;;;9.57;;
2175;SDS011;1094;49.902;10.876;2022-10-22T02:59:39;13.00;;;10.27;;
2175;SDS011;1094;49.902;10.876;2022-10-22T03:02:05;15.00;;;9.90;;
2175;SDS011;1094;49.902;10.876;2022-10-22T03:04:31;14.20;;;10.10;;
2175;SDS011;1094;49.902;10.876;2022-10-22T03:06:57;12.90;;;9.60;;
2175;SDS011;1094;49.902;10.876;2022-10-22T03:09:23;14.60;;;9.87;;
2175;SDS011;1094;49.902;10.876;2022-10-22T03:11:49;18.30;;;11.00;;
2175;SDS011;1094;49.902;10.876;2022-10-22T03:14:15;12.93;;;10.20;;
2175;SDS011;1094;49.902;10.876;2022-10-22T03:16:41;15.50;;;10.40;;
2175;SDS011;1094;49.902;10.876;2022-10-22T03:19:07;13.27;;;10.00;;
2175;SDS011;1094;49.902;10.876;2022-10-22T03:21:41;15.03;;;9.70;;
2175;SDS011;1094;49.902;10.876;2022-10-22T03:24:12;18.43;;;9.40;;
2175;SDS011;1094;49.902;10.876;2022-10-22T03:26:40;10.83;;;9.30;;
2175;SDS011;1094;49.902;10.876;2022-10-22T03:29:06;13.17;;;9.23;;
2175;SDS011;1094;49.902;10.876;2022-10-22T03:31:32;10.47;;;8.87;;
2175;SDS011;1094;49.902;10.876;2022-10-22T03:33:58;9.50;;;8.03;;
2175;SDS011;1094;49.902;10.876;2022-10-22T03:36:24;14.57;;;9.20;;
2175;SDS011;1094;49.902;10.876;2022-10-22T03:38:50;12.97;;;9.60;;
2175;SDS011;1094;49.902;10.876;2022-10-22T03:41:16;11.73;;;8.57;;
2175;SDS011;1094;49.902;10.876;2022-10-22T03:43:42;10.53;;;7.77;;
2175;SDS011;1094;49.902;10.876;2022-10-22T03:46:13;8.87;;;8.00;;
2175;SDS011;1094;49.902;10.876;2022-10-22T03:48:39;9.57;;;5.27;;
2175;SDS011;1094;49.902;10.876;2022-10-22T03:51:05;9.40;;;5.97;;
2175;SDS011;1094;49.902;10.876;2022-10-22T03:53:31;5.00;;;4.50;;
2175;SDS011;1094;49.902;10.876;2022-10-22T03:55:57;7.40;;;4.50;;
2175;SDS011;1094;49.902;10.876;2022-10-22T03:58:23;6.40;;;5.43;;
2175;SDS011;1094;49.902;10.876;2022-10-22T04:00:49;9.10;;;5.60;;
2175;SDS011;1094;49.902;10.876;2022-10-22T04:03:15;7.20;;;5.33;;
2175;SDS011;1094;49.902;10.876;2022-10-22T04:05:41;7.53;;;5.40;;
2175;SDS011;1094;49.902;10.876;2022-10-22T04:08:07;5.83;;;5.13;;
2175;SDS011;1094;49.902;10.876;2022-10-22T04:10:33;8.53;;;5.80;;
2175;SDS011;1094;49.902;10.876;2022-10-22T04:12:59;6.83;;;5.47;;
2175;SDS011;1094;49.902;10.876;2022-10-22T04:15:25;6.83;;;5.73;;
2175;SDS011;1094;49.902;10.876;2022-10-22T04:17:52;7.27;;;5.83;;
2175;SDS011;1094;49.902;10.876;2022-10-22T04:20:18;7.57;;;6.77;;
2175;SDS011;1094;49.902;10.876;2022-10-22T04:22:44;19.37;;;6.80;;
2175;SDS011;1094;49.902;10.876;2022-10-22T04:25:10;10.30;;;6.50;;
2175;SDS011;1094;49.902;10.876;2022-10-22T04:27:36;7.77;;;5.90;;
2175;SDS011;1094;49.902;10.876;2022-10-22T04:30:03;11.10;;;6.30;;
2175;SDS011;1094;49.902;10.876;2022-10-22T04:32:30;8.20;;;6.77;;
2175;SDS011;1094;49.902;10.876;2022-10-22T04:34:56;7.33;;;6.23;;
2175;SDS011;1094;49.902;10.876;2022-10-22T04:37:22;7.40;;;6.30;;
2175;SDS011;1094;49.902;10.876;2022-10-22T04:39:48;6.77;;;6.10;;
2175;SDS011;1094;49.902;10.876;2022-10-22T04:42:14;8.53;;;6.67;;
2175;SDS011;1094;49.902;10.876;2022-10-22T04:44:40;10.70;;;5.83;;
2175;SDS011;1094;49.902;10.876;2022-10-22T04:47:06;9.00;;;7.50;;
2175;SDS011;1094;49.902;10.876;2022-10-22T04:49:32;8.03;;;5.90;;
2175;SDS011;1094;49.902;10.876;2022-10-22T04:51:58;11.10;;;7.87;;
2175;SDS011;1094;49.902;10.876;2022-10-22T04:54:24;8.07;;;6.07;;
2175;SDS011;1094;49.902;10.876;2022-10-22T04:56:50;9.07;;;7.10;;
2175;SDS011;1094;49.902;10.876;2022-10-22T04:59:16;8.33;;;6.50;;
2175;SDS011;1094;49.902;10.876;2022-10-22T05:01:42;6.60;;;6.00;;
2175;SDS011;1094;49.902;10.876;2022-10-22T05:04:13;5.93;;;5.33;;
2175;SDS011;1094;49.902;10.876;2022-10-22T05:06:39;12.17;;;6.27;;
2175;SDS011;1094;49.902;10.876;2022-10-22T05:09:06;6.10;;;5.47;;
2175;SDS011;1094;49.902;10.876;2022-10-22T05:11:34;9.33;;;6.80;;
2175;SDS011;1094;49.902;10.876;2022-10-22T05:14:01;7.10;;;5.70;;
2175;SDS011;1094;49.902;10.876;2022-10-22T05:16:27;7.80;;;5.50;;
2175;SDS011;1094;49.902;10.876;2022-10-22T05:18:54;6.10;;;5.50;;
2175;SDS011;1094;49.902;10.876;2022-10-22T05:21:20;7.70;;;6.40;;
2175;SDS011;1094;49.902;10.876;2022-10-22T05:23:47;10.30;;;5.10;;
2175;SDS011;1094;49.902;10.876;2022-10-22T05:26:14;10.60;;;5.20;;
2175;SDS011;1094;49.902;10.876;2022-10-22T05:28:40;6.60;;;5.70;;
2175;SDS011;1094;49.902;10.876;2022-10-22T05:31:07;8.70;;;4.97;;
2175;SDS011;1094;49.902;10.876;2022-10-22T05:33:33;11.50;;;5.60;;
2175;SDS011;1094;49.902;10.876;2022-10-22T05:36:00;10.10;;;6.77;;
2175;SDS011;1094;49.902;10.876;2022-10-22T05:38:26;6.20;;;4.90;;
2175;SDS011;1094;49.902;10.876;2022-10-22T05:41:02;7.17;;;5.20;;
2175;SDS011;1094;49.902;10.876;2022-10-22T05:43:28;8.70;;;4.47;;
2175;SDS011;1094;49.902;10.876;2022-10-22T05:45:54;5.80;;;4.00;;
2175;SDS011;1094;49.902;10.876;2022-10-22T05:48:20;4.90;;;3.83;;
2175;SDS011;1094;49.902;10.876;2022-10-22T05:50:46;6.40;;;3.60;;
2175;SDS011;1094;49.902;10.876;2022-10-22T05:53:15;4.93;;;4.10;;
2175;SDS011;1094;49.902;10.876;2022-10-22T05:55:41;7.97;;;3.57;;
2175;SDS011;1094;49.902;10.876;2022-10-22T05:58:08;10.53;;;6.40;;
2175;SDS011;1094;49.902;10.876;2022-10-22T06:00:34;12.60;;;5.00;;
2175;SDS011;1094;49.902;10.876;2022-10-22T06:03:00;7.93;;;4.20;;
2175;SDS011;1094;49.902;10.876;2022-10-22T06:05:25;5.10;;;3.33;;
2175;SDS011;1094;49.902;10.876;2022-10-22T06:07:51;10.60;;;3.43;;
2175;SDS011;1094;49.902;10.876;2022-10-22T06:10:18;3.87;;;3.20;;
2175;SDS011;1094;49.902;10.876;2022-10-22T06:12:45;3.43;;;3.00;;
2175;SDS011;1094;49.902;10.876;2022-10-22T06:15:12;6.90;;;3.17;;
2175;SDS011;1094;49.902;10.876;2022-10-22T06:17:38;5.50;;;3.60;;
2175;SDS011;1094;49.902;10.876;2022-10-22T06:20:04;7.50;;;3.30;;
2175;SDS011;1094;49.902;10.876;2022-10-22T06:22:30;4.57;;;3.33;;
2175;SDS011;1094;49.902;10.876;2022-10-22T06:24:56;3.47;;;3.17;;
2175;SDS011;1094;49.902;10.876;2022-10-22T06:27:22;6.80;;;3.03;;
2175;SDS011;1094;49.902;10.876;2022-10-22T06:29:48;4.20;;;3.30;;
2175;SDS011;1094;49.902;10.876;2022-10-22T06:32:14;7.87;;;3.40;;
2175;SDS011;1094;49.902;10.876;2022-10-22T06:34:40;4.63;;;2.93;;
2175;SDS011;1094;49.902;10.876;2022-10-22T06:37:06;4.27;;;3.40;;
2175;SDS011;1094;49.902;10.876;2022-10-22T06:39:32;3.77;;;3.10;;
2175;SDS011;1094;49.902;10.876;2022-10-22T06:41:58;4.33;;;3.37;;
2175;SDS011;1094;49.902;10.876;2022-10-22T06:44:24;3.30;;;2.73;;
2175;SDS011;1094;49.902;10.876;2022-10-22T06:46:50;9.37;;;2.90;;
2175;SDS011;1094;49.902;10.876;2022-10-22T06:49:16;4.97;;;3.23;;
2175;SDS011;1094;49.902;10.876;2022-10-22T06:51:42;4.83;;;3.47;;
2175;SDS011;1094;49.902;10.876;2022-10-22T06:54:09;4.03;;;3.60;;
2175;SDS011;1094;49.902;10.876;2022-10-22T06:56:35;6.07;;;3.57;;
2175;SDS011;1094;49.902;10.876;2022-10-22T06:59:01;6.70;;;3.40;;
2175;SDS011;1094;49.902;10.876;2022-10-22T07:01:28;3.63;;;3.00;;
2175;SDS011;1094;49.902;10.876;2022-10-22T07:03:54;9.40;;;3.60;;
2175;SDS011;1094;49.902;10.876;2022-10-22T07:06:20;3.50;;;3.20;;
2175;SDS011;1094;49.902;10.876;2022-10-22T07:08:46;5.73;;;3.30;;
2175;SDS011;1094;49.902;10.876;2022-10-22T07:13:38;5.67;;;3.07;;
2175;SDS011;1094;49.902;10.876;2022-10-22T07:16:05;3.40;;;2.40;;
2175;SDS011;1094;49.902;10.876;2022-10-22T07:18:31;4.87;;;2.60;;
2175;SDS011;1094;49.902;10.876;2022-10-22T07:20:57;3.40;;;3.10;;
2175;SDS011;1094;49.902;10.876;2022-10-22T07:23:23;4.97;;;2.57;;
2175;SDS011;1094;49.902;10.876;2022-10-22T07:25:49;2.63;;;1.90;;
2175;SDS011;1094;49.902;10.876;2022-10-22T07:28:15;3.07;;;2.80;;
2175;SDS011;1094;49.902;10.876;2022-10-22T07:30:41;7.40;;;2.70;;
2175;SDS011;1094;49.902;10.876;2022-10-22T07:33:07;3.97;;;2.63;;
2175;SDS011;1094;49.902;10.876;2022-10-22T07:35:35;4.23;;;2.27;;
2175;SDS011;1094;49.902;10.876;2022-10-22T07:38:01;2.90;;;2.70;;
2175;SDS011;1094;49.902;10.876;2022-10-22T07:40:27;2.87;;;2.37;;
2175;SDS011;1094;49.902;10.876;2022-10-22T07:42:52;6.10;;;3.40;;
2175;SDS011;1094;49.902;10.876;2022-10-22T07:45:18;3.60;;;3.10;;
2175;SDS011;1094;49.902;10.876;2022-10-22T07:47:45;7.20;;;5.33;;
2175;SDS011;1094;49.902;10.876;2022-10-22T07:50:11;4.70;;;3.40;;
2175;SDS011;1094;49.902;10.876;2022-10-22T07:52:37;3.83;;;2.90;;
2175;SDS011;1094;49.902;10.876;2022-10-22T07:55:03;4.03;;;2.90;;
2175;SDS011;1094;49.902;10.876;2022-10-22T07:57:30;4.20;;;2.93;;
2175;SDS011;1094;49.902;10.876;2022-10-22T07:59:56;5.83;;;2.90;;
2175;SDS011;1094;49.902;10.876;2022-10-22T08:02:22;3.53;;;3.23;;
2175;SDS011;1094;49.902;10.876;2022-10-22T08:04:48;4.53;;;3.27;;
2175;SDS011;1094;49.902;10.876;2022-10-22T08:07:14;5.37;;;3.17;;
2175;SDS011;1094;49.902;10.876;2022-10-22T08:09:40;3.77;;;2.80;;
2175;SDS011;1094;49.902;10.876;2022-10-22T08:12:06;4.70;;;2.40;;
2175;SDS011;1094;49.902;10.876;2022-10-22T08:14:32;3.50;;;2.20;;
2175;SDS011;1094;49.902;10.876;2022-10-22T08:16:58;2.00;;;1.80;;
2175;SDS011;1094;49.902;10.876;2022-10-22T08:19:24;3.60;;;1.73;;
2175;SDS011;1094;49.902;10.876;2022-10-22T08:21:50;2.70;;;2.13;;
2175;SDS011;1094;49.902;10.876;2022-10-22T08:24:16;1.60;;;1.50;;
2175;SDS011;1094;49.902;10.876;2022-10-22T08:26:42;4.27;;;1.60;;
2175;SDS011;1094;49.902;10.876;2022-10-22T08:29:08;3.77;;;1.37;;
2175;SDS011;1094;49.902;10.876;2022-10-22T08:31:34;2.97;;;1.30;;
2175;SDS011;1094;49.902;10.876;2022-10-22T08:34:00;2.23;;;1.37;;
2175;SDS011;1094;49.902;10.876;2022-10-22T08:36:26;3.33;;;1.90;;
2175;SDS011;1094;49.902;10.876;2022-10-22T08:38:52;1.40;;;1.30;;
2175;SDS011;1094;49.902;10.876;2022-10-22T08:41:18;2.10;;;1.37;;
2175;SDS011;1094;49.902;10.876;2022-10-22T08:43:55;3.03;;;1.20;;
2175;SDS011;1094;49.902;10.876;2022-10-22T08:46:27;1.33;;;0.97;;
2175;SDS011;1094;49.902;10.876;2022-10-22T08:49:02;2.43;;;1.00;;
2175;SDS011;1094;49.902;10.876;2022-10-22T08:51:30;5.90;;;1.90;;
2175;SDS011;1094;49.902;10.876;2022-10-22T08:56:42;2.20;;;1.73;;
2175;SDS011;1094;49.902;10.876;2022-10-22T08:59:11;1.43;;;1.17;;
2175;SDS011;1094;49.902;10.876;2022-10-22T09:01:45;2.40;;;1.67;;
2175;SDS011;1094;49.902;10.876;2022-10-22T09:04:13;3.80;;;1.43;;
2175;SDS011;1094;49.902;10.876;2022-10-22T09:06:41;3.03;;;1.50;;
2175;SDS011;1094;49.902;10.876;2022-10-22T09:09:10;5.50;;;2.10;;
2175;SDS011;1094;49.902;10.876;2022-10-22T09:11:37;2.47;;;1.43;;
2175;SDS011;1094;49.902;10.876;2022-10-22T09:14:04;3.67;;;1.60;;
2175;SDS011;1094;49.902;10.876;2022-10-22T09:21:59;8.37;;;2.93;;
2175;SDS011;1094;49.902;10.876;2022-10-22T09:26:59;5.07;;;2.20;;
2175;SDS011;1094;49.902;10.876;2022-10-22T09:29:30;3.73;;;2.80;;
2175;SDS011;1094;49.902;10.876;2022-10-22T09:31:57;3.53;;;2.60;;
2175;SDS011;1094;49.902;10.876;2022-10-22T09:34:23;3.70;;;2.10;;
2175;SDS011;1094;49.902;10.876;2022-10-22T09:36:59;3.20;;;2.23;;
2175;SDS011;1094;49.902;10.876;2022-10-22T09:39:26;2.20;;;2.00;;
2175;SDS011;1094;49.902;10.876;2022-10-22T09:41:52;3.40;;;2.60;;
2175;SDS011;1094;49.902;10.876;2022-10-22T09:44:19;4.33;;;2.73;;
2175;SDS011;1094;49.902;10.876;2022-10-22T09:46:45;6.13;;;2.57;;
2175;SDS011;1094;49.902;10.876;2022-10-22T09:49:15;2.43;;;2.00;;
2175;SDS011;1094;49.902;10.876;2022-10-22T09:54:21;4.90;;;2.60;;
2175;SDS011;1094;49.902;10.876;2022-10-22T09:57:02;8.63;;;2.43;;
2175;SDS011;1094;49.902;10.876;2022-10-22T09:59:30;3.90;;;2.27;;
2175;SDS011;1094;49.902;10.876;2022-10-22T10:01:57;3.23;;;1.93;;
2175;SDS011;1094;49.902;10.876;2022-10-22T10:04:23;2.57;;;2.10;;
2175;SDS011;1094;49.902;10.876;2022-10-22T10:06:52;2.93;;;2.33;;
2175;SDS011;1094;49.902;10.876;2022-10-22T10:09:19;3.87;;;2.20;;
2175;SDS011;1094;49.902;10.876;2022-10-22T10:14:38;2.20;;;1.83;;
2175;SDS011;1094;49.902;10.876;2022-10-22T10:17:41;3.30;;;2.17;;
2175;SDS011;1094;49.902;10.876;2022-10-22T10:20:00;3.27;;;1.83;;
2175;SDS011;1094;49.902;10.876;2022-10-22T10:22:40;4.20;;;2.10;;
2175;SDS011;1094;49.902;10.876;2022-10-22T10:25:23;3.17;;;1.80;;
2175;SDS011;1094;49.902;10.876;2022-10-22T10:30:25;2.37;;;1.80;;
2175;SDS011;1094;49.902;10.876;2022-10-22T10:35:27;4.23;;;1.60;;
2175;SDS011;1094;49.902;10.876;2022-10-22T10:40:49;1.97;;;1.70;;
2175;SDS011;1094;49.902;10.876;2022-10-22T10:43:29;2.53;;;1.60;;
2175;SDS011;1094;49.902;10.876;2022-10-22T10:58:45;2.63;;;1.47;;
2175;SDS011;1094;49.902;10.876;2022-10-22T11:06:14;3.40;;;1.70;;
2175;SDS011;1094;49.902;10.876;2022-10-22T11:16:22;2.63;;;1.70;;
2175;SDS011;1094;49.902;10.876;2022-10-22T11:21:28;1.70;;;1.60;;
2175;SDS011;1094;49.902;10.876;2022-10-22T11:28:57;6.30;;;1.70;;
2175;SDS011;1094;49.902;10.876;2022-10-22T11:31:24;3.40;;;1.50;;
2175;SDS011;1094;49.902;10.876;2022-10-22T11:33:56;3.70;;;1.87;;
2175;SDS011;1094;49.902;10.876;2022-10-22T11:36:24;3.47;;;1.40;;
2175;SDS011;1094;49.902;10.876;2022-10-22T11:38:52;1.40;;;1.20;;
2175;SDS011;1094;49.902;10.876;2022-10-22T11:41:22;3.70;;;1.80;;
2175;SDS011;1094;49.902;10.876;2022-10-22T11:43:55;3.47;;;1.70;;
2175;SDS011;1094;49.902;10.876;2022-10-22T11:46:29;1.77;;;1.20;;
2175;SDS011;1094;49.902;10.876;2022-10-22T11:51:35;3.33;;;1.53;;
2175;SDS011;1094;49.902;10.876;2022-10-22T11:54:46;2.37;;;1.20;;
2175;SDS011;1094;49.902;10.876;2022-10-22T11:56:47;2.87;;;1.10;;
2175;SDS011;1094;49.902;10.876;2022-10-22T12:04:49;2.80;;;1.20;;
2175;SDS011;1094;49.902;10.876;2022-10-22T12:07:32;4.83;;;1.17;;
2175;SDS011;1094;49.902;10.876;2022-10-22T12:09:58;4.17;;;1.13;;
2175;SDS011;1094;49.902;10.876;2022-10-22T12:12:24;3.23;;;1.20;;
2175;SDS011;1094;49.902;10.876;2022-10-22T12:14:53;2.13;;;1.10;;
2175;SDS011;1094;49.902;10.876;2022-10-22T12:17:20;1.73;;;1.37;;
2175;SDS011;1094;49.902;10.876;2022-10-22T12:20:10;2.83;;;1.40;;
2175;SDS011;1094;49.902;10.876;2022-10-22T12:22:33;4.67;;;1.20;;
2175;SDS011;1094;49.902;10.876;2022-10-22T12:25:05;1.87;;;1.30;;
2175;SDS011;1094;49.902;10.876;2022-10-22T12:27:35;2.90;;;1.30;;
2175;SDS011;1094;49.902;10.876;2022-10-22T12:30:02;1.80;;;1.17;;
2175;SDS011;1094;49.902;10.876;2022-10-22T12:32:33;2.57;;;1.10;;
2175;SDS011;1094;49.902;10.876;2022-10-22T12:35:02;1.30;;;1.07;;
2175;SDS011;1094;49.902;10.876;2022-10-22T12:37:28;2.00;;;1.10;;
2175;SDS011;1094;49.902;10.876;2022-10-22T12:39:54;3.03;;;1.10;;
2175;SDS011;1094;49.902;10.876;2022-10-22T12:42:20;6.63;;;1.13;;
2175;SDS011;1094;49.902;10.876;2022-10-22T12:44:47;3.00;;;1.20;;
2175;SDS011;1094;49.902;10.876;2022-10-22T12:47:19;1.40;;;1.10;;
2175;SDS011;1094;49.902;10.876;2022-10-22T12:49:45;2.13;;;1.20;;
2175;SDS011;1094;49.902;10.876;2022-10-22T12:52:21;3.37;;;1.27;;
2175;SDS011;1094;49.902;10.876;2022-10-22T12:54:49;2.10;;;1.10;;
2175;SDS011;1094;49.902;10.876;2022-10-22T12:57:19;5.57;;;2.10;;
2175;SDS011;1094;49.902;10.876;2022-10-22T12:59:46;1.30;;;1.00;;
2175;SDS011;1094;49.902;10.876;2022-10-22T13:02:16;2.80;;;1.07;;
2175;SDS011;1094;49.902;10.876;2022-10-22T13:05:03;3.10;;;1.00;;
2175;SDS011;1094;49.902;10.876;2022-10-22T13:07:38;13.40;;;1.40;;
2175;SDS011;1094;49.902;10.876;2022-10-22T13:10:14;1.57;;;1.00;;
2175;SDS011;1094;49.902;10.876;2022-10-22T13:12:43;2.07;;;1.00;;
2175;SDS011;1094;49.902;10.876;2022-10-22T13:18:01;1.97;;;1.03;;
2175;SDS011;1094;49.902;10.876;2022-10-22T13:20:27;1.70;;;1.00;;
2175;SDS011;1094;49.902;10.876;2022-10-22T13:25:29;2.50;;;1.10;;
2175;SDS011;1094;49.902;10.876;2022-10-22T13:28:00;2.90;;;1.30;;
2175;SDS011;1094;49.902;10.876;2022-10-22T13:32:54;2.13;;;1.20;;
2175;SDS011;1094;49.902;10.876;2022-10-22T13:35:22;4.93;;;1.23;;
2175;SDS011;1094;49.902;10.876;2022-10-22T13:37:48;5.00;;;1.20;;
2175;SDS011;1094;49.902;10.876;2022-10-22T13:40:15;3.17;;;1.00;;
2175;SDS011;1094;49.902;10.876;2022-10-22T13:42:41;6.73;;;1.20;;
2175;SDS011;1094;49.902;10.876;2022-10-22T13:45:07;2.70;;;1.03;;
2175;SDS011;1094;49.902;10.876;2022-10-22T13:47:33;2.70;;;1.20;;
2175;SDS011;1094;49.902;10.876;2022-10-22T13:49:59;6.73;;;1.50;;
2175;SDS011;1094;49.902;10.876;2022-10-22T13:52:37;2.27;;;1.30;;
2175;SDS011;1094;49.902;10.876;2022-10-22T13:55:22;1.60;;;1.20;;
2175;SDS011;1094;49.902;10.876;2022-10-22T13:57:56;1.93;;;1.10;;
2175;SDS011;1094;49.902;10.876;2022-10-22T14:00:23;3.13;;;1.10;;
2175;SDS011;1094;49.902;10.876;2022-10-22T14:02:51;2.00;;;1.20;;
2175;SDS011;1094;49.902;10.876;2022-10-22T14:05:18;8.63;;;1.30;;
2175;SDS011;1094;49.902;10.876;2022-10-22T14:07:44;4.47;;;1.37;;
2175;SDS011;1094;49.902;10.876;2022-10-22T14:12:39;3.67;;;1.57;;
2175;SDS011;1094;49.902;10.876;2022-10-22T14:15:06;5.23;;;1.23;;
2175;SDS011;1094;49.902;10.876;2022-10-22T14:17:32;4.80;;;1.50;;
2175;SDS011;1094;49.902;10.876;2022-10-22T14:19:58;3.00;;;1.53;;
2175;SDS011;1094;49.902;10.876;2022-10-22T14:22:24;1.77;;;1.20;;
2175;SDS011;1094;49.902;10.876;2022-10-22T14:24:51;6.67;;;1.60;;
2175;SDS011;1094;49.902;10.876;2022-10-22T14:27:18;6.83;;;1.40;;
2175;SDS011;1094;49.902;10.876;2022-10-22T14:29:44;3.00;;;1.40;;
2175;SDS011;1094;49.902;10.876;2022-10-22T14:32:14;3.57;;;1.40;;
2175;SDS011;1094;49.902;10.876;2022-10-22T14:34:41;2.70;;;1.27;;
2175;SDS011;1094;49.902;10.876;2022-10-22T14:37:17;3.10;;;1.30;;
2175;SDS011;1094;49.902;10.876;2022-10-22T14:39:44;3.20;;;1.40;;
2175;SDS011;1094;49.902;10.876;2022-10-22T14:42:17;5.10;;;1.57;;
2175;SDS011;1094;49.902;10.876;2022-10-22T14:44:43;2.80;;;1.20;;
2175;SDS011;1094;49.902;10.876;2022-10-22T14:47:10;2.40;;;1.20;;
2175;SDS011;1094;49.902;10.876;2022-10-22T14:49:36;2.35;;;1.15;;
2175;SDS011;1094;49.902;10.876;2022-10-22T14:52:02;2.53;;;1.80;;
2175;SDS011;1094;49.902;10.876;2022-10-22T14:54:28;4.70;;;1.50;;
2175;SDS011;1094;49.902;10.876;2022-10-22T14:56:54;3.30;;;1.30;;
2175;SDS011;1094;49.902;10.876;2022-10-22T14:59:20;1.57;;;1.37;;
2175;SDS011;1094;49.902;10.876;2022-10-22T15:01:46;2.17;;;1.13;;
2175;SDS011;1094;49.902;10.876;2022-10-22T15:04:12;4.37;;;1.30;;
2175;SDS011;1094;49.902;10.876;2022-10-22T15:06:38;3.23;;;1.40;;
2175;SDS011;1094;49.902;10.876;2022-10-22T15:09:04;1.93;;;1.40;;
2175;SDS011;1094;49.902;10.876;2022-10-22T15:11:29;3.97;;;1.30;;
2175;SDS011;1094;49.902;10.876;2022-10-22T15:13:55;3.70;;;1.40;;
2175;SDS011;1094;49.902;10.876;2022-10-22T15:16:21;12.20;;;2.40;;
2175;SDS011;1094;49.902;10.876;2022-10-22T15:18:47;2.80;;;1.20;;
2175;SDS011;1094;49.902;10.876;2022-10-22T15:21:14;2.00;;;1.70;;
2175;SDS011;1094;49.902;10.876;2022-10-22T15:23:41;4.03;;;1.60;;
2175;SDS011;1094;49.902;10.876;2022-10-22T15:26:07;6.50;;;1.97;;
2175;SDS011;1094;49.902;10.876;2022-10-22T15:28:34;4.40;;;1.70;;
2175;SDS011;1094;49.902;10.876;2022-10-22T15:31:00;3.60;;;1.60;;
2175;SDS011;1094;49.902;10.876;2022-10-22T15:33:26;2.93;;;1.70;;
2175;SDS011;1094;49.902;10.876;2022-10-22T15:35:53;3.33;;;1.63;;
2175;SDS011;1094;49.902;10.876;2022-10-22T15:38:19;2.13;;;1.50;;
2175;SDS011;1094;49.902;10.876;2022-10-22T15:40:45;1.53;;;1.43;;
2175;SDS011;1094;49.902;10.876;2022-10-22T15:43:11;3.10;;;1.47;;
2175;SDS011;1094;49.902;10.876;2022-10-22T15:45:37;3.97;;;1.67;;
2175;SDS011;1094;49.902;10.876;2022-10-22T15:48:03;2.30;;;1.60;;
2175;SDS011;1094;49.902;10.876;2022-10-22T15:50:29;2.00;;;1.43;;
2175;SDS011;1094;49.902;10.876;2022-10-22T15:52:55;1.97;;;1.53;;
2175;SDS011;1094;49.902;10.876;2022-10-22T15:55:22;3.83;;;1.57;;
2175;SDS011;1094;49.902;10.876;2022-10-22T15:57:48;3.30;;;1.70;;
2175;SDS011;1094;49.902;10.876;2022-10-22T16:00:19;4.40;;;1.77;;
2175;SDS011;1094;49.902;10.876;2022-10-22T16:02:45;2.43;;;1.33;;
2175;SDS011;1094;49.902;10.876;2022-10-22T16:05:11;3.30;;;1.60;;
2175;SDS011;1094;49.902;10.876;2022-10-22T16:07:37;3.60;;;2.10;;
2175;SDS011;1094;49.902;10.876;2022-10-22T16:10:03;6.20;;;1.70;;
2175;SDS011;1094;49.902;10.876;2022-10-22T16:12:31;2.93;;;2.20;;
2175;SDS011;1094;49.902;10.876;2022-10-22T16:14:59;3.07;;;2.00;;
2175;SDS011;1094;49.902;10.876;2022-10-22T16:17:25;4.07;;;2.60;;
2175;SDS011;1094;49.902;10.876;2022-10-22T16:19:51;3.47;;;2.03;;
2175;SDS011;1094;49.902;10.876;2022-10-22T16:22:17;2.57;;;1.87;;
2175;SDS011;1094;49.902;10.876;2022-10-22T16:24:43;3.93;;;2.47;;
2175;SDS011;1094;49.902;10.876;2022-10-22T16:27:09;4.23;;;3.37;;
2175;SDS011;1094;49.902;10.876;2022-10-22T16:29:36;5.40;;;4.17;;
2175;SDS011;1094;49.902;10.876;2022-10-22T16:32:03;6.83;;;3.97;;
2175;SDS011;1094;49.902;10.876;2022-10-22T16:34:29;4.33;;;3.50;;
2175;SDS011;1094;49.902;10.876;2022-10-22T16:36:54;5.30;;;3.43;;
2175;SDS011;1094;49.902;10.876;2022-10-22T16:39:21;4.80;;;3.93;;
2175;SDS011;1094;49.902;10.876;2022-10-22T16:41:47;6.80;;;2.80;;